Time;durP1;ratioP1;P1;durP2;ratioP2;P2;SDS_P1;SDS_P2;PMS_P1;PMS_P2;Temp;Humidity;BMP_temperature;BMP_pressure;BME280_temperature;BME280_humidity;BME280_pressure;Samples;Min_cycle;Max_cycle;Signal;HPM_P1;HPM_P2
2023/03/21 00:01:06;;;;;;;16.10;13.03;;;8.10;99.90;;;;;;5034206;28;20191;-75
2023/03/21 00:03:33;;;;;;;18.57;13.40;;;8.10;99.90;;;;;;5035239;28;20378;-74
2023/03/21 00:06:07;;;;;;;19.87;14.10;;;8.20;99.90;;;;;;5036364;28;20179;-75
2023/03/21 00:08:33;;;;;;;18.87;14.47;;;8.20;99.90;;;;;;5036324;28;20435;-76
2023/03/21 00:11:01;;;;;;;17.23;13.37;;;8.10;99.90;;;;;;5033321;28;20405;-79
2023/03/21 00:13:31;;;;;;;16.00;12.80;;;8.20;99.90;;;;;;5039963;28;20227;-74
2023/03/21 00:16:04;;;;;;;21.17;14.50;;;8.10;99.90;;;;;;5036152;28;20368;-75
2023/03/21 00:18:30;;;;;;;19.30;13.80;;;8.10;99.90;;;;;;5036216;28;20368;-74
2023/03/21 00:21:02;;;;;;;16.70;13.23;;;8.10;99.90;;;;;;5033741;28;20392;-75
2023/03/21 00:23:29;;;;;;;21.13;13.77;;;8.10;99.90;;;;;;5034746;28;20264;-75
2023/03/21 00:25:56;;;;;;;18.63;14.10;;;8.10;99.90;;;;;;5035997;28;20455;-75
2023/03/21 00:28:22;;;;;;;17.00;12.60;;;8.20;99.90;;;;;;5034758;28;20434;-74
2023/03/21 00:30:48;;;;;;;21.07;14.27;;;8.20;99.90;;;;;;5034925;28;20485;-75
2023/03/21 00:33:14;;;;;;;24.20;14.97;;;8.10;99.90;;;;;;5035053;28;20447;-75
2023/03/21 00:35:43;;;;;;;21.37;14.33;;;8.10;99.90;;;;;;5034682;28;20397;-74
2023/03/21 00:38:09;;;;;;;20.23;14.10;;;8.10;99.90;;;;;;5034561;28;20381;-74
2023/03/21 00:40:35;;;;;;;18.60;14.63;;;8.10;99.90;;;;;;5036703;28;20494;-76
2023/03/21 00:43:01;;;;;;;21.93;14.53;;;8.10;99.90;;;;;;5042722;28;20562;-75
2023/03/21 00:45:27;;;;;;;17.97;13.00;;;8.10;99.90;;;;;;5035554;28;20378;-74
2023/03/21 00:47:53;;;;;;;20.03;13.20;;;8.20;99.90;;;;;;5035505;28;20415;-76
2023/03/21 00:50:18;;;;;;;21.43;14.87;;;8.10;99.90;;;;;;5034807;28;20186;-74
2023/03/21 00:52:44;;;;;;;20.17;13.83;;;8.10;99.90;;;;;;5052460;28;20206;-74
2023/03/21 00:55:14;;;;;;;19.43;13.90;;;8.10;99.90;;;;;;5045844;28;20225;-76
2023/03/21 00:57:41;;;;;;;20.40;13.30;;;8.10;99.90;;;;;;5035059;28;20419;-74
2023/03/21 01:00:09;;;;;;;21.93;14.43;;;8.00;99.90;;;;;;5034498;28;20439;-74
2023/03/21 01:02:36;;;;;;;18.20;14.10;;;8.10;99.90;;;;;;5035191;28;20414;-75
2023/03/21 01:05:03;;;;;;;19.30;14.77;;;8.00;99.90;;;;;;5035230;28;20411;-75
2023/03/21 01:07:29;;;;;;;20.67;13.77;;;8.00;99.90;;;;;;5036307;28;20447;-75
2023/03/21 01:09:55;;;;;;;21.93;13.83;;;8.00;99.90;;;;;;5054276;28;20428;-76
2023/03/21 01:12:20;;;;;;;24.83;16.60;;;8.10;99.90;;;;;;5038723;28;20600;-74
2023/03/21 01:14:46;;;;;;;26.27;16.10;;;8.10;99.90;;;;;;5035105;28;20175;-74
2023/03/21 01:17:12;;;;;;;22.03;15.63;;;8.10;99.90;;;;;;5033783;28;20168;-74
2023/03/21 01:19:37;;;;;;;23.60;14.50;;;8.00;99.90;;;;;;5035006;28;20332;-74
2023/03/21 01:22:04;;;;;;;22.47;14.87;;;8.00;99.90;;;;;;5032133;28;20649;-76
2023/03/21 01:24:29;;;;;;;20.33;14.93;;;8.10;99.90;;;;;;5036807;28;20187;-74
2023/03/21 01:26:55;;;;;;;23.47;15.00;;;8.10;99.90;;;;;;5040527;28;20814;-74
2023/03/21 01:29:21;;;;;;;20.23;14.37;;;8.10;99.90;;;;;;5034146;28;20418;-75
2023/03/21 01:31:47;;;;;;;22.83;14.33;;;8.10;99.90;;;;;;5033791;28;20279;-74
2023/03/21 01:34:13;;;;;;;20.53;14.20;;;8.00;99.90;;;;;;5033407;28;20204;-73
2023/03/21 01:36:38;;;;;;;21.20;14.07;;;8.00;99.90;;;;;;5034550;28;20172;-74
2023/03/21 01:39:05;;;;;;;21.27;14.97;;;8.00;99.90;;;;;;5051233;28;20922;-75
2023/03/21 01:41:39;;;;;;;20.73;14.13;;;8.00;99.90;;;;;;5033488;28;20188;-76
2023/03/21 01:44:06;;;;;;;23.67;16.07;;;8.10;99.90;;;;;;5034534;28;20457;-76
2023/03/21 01:46:36;;;;;;;25.17;16.37;;;8.10;99.90;;;;;;5033275;28;20767;-75
2023/03/21 01:49:28;;;;;;;22.37;14.83;;;8.00;99.90;;;;;;5033982;28;20456;-74
2023/03/21 01:51:59;;;;;;;23.90;15.63;;;8.00;99.90;;;;;;5038572;28;20604;-76
2023/03/21 01:54:31;;;;;;;23.70;16.10;;;8.10;99.90;;;;;;5038373;28;20503;-74
2023/03/21 01:57:00;;;;;;;23.80;14.43;;;8.10;99.90;;;;;;5054211;28;20464;-74
2023/03/21 01:59:31;;;;;;;23.13;15.10;;;8.10;99.90;;;;;;5052902;28;20894;-75
2023/03/21 02:02:06;;;;;;;23.30;15.00;;;8.00;99.90;;;;;;5050679;28;20762;-74
2023/03/21 02:04:33;;;;;;;19.83;14.23;;;8.10;99.90;;;;;;5054071;28;20407;-75
2023/03/21 02:07:06;;;;;;;22.87;14.73;;;8.10;99.90;;;;;;5050316;28;20448;-75
2023/03/21 02:09:35;;;;;;;20.60;14.13;;;8.10;1.00;;;;;;5032858;28;20413;-74
2023/03/21 02:12:02;;;;;;;21.40;14.93;;;8.10;1.00;;;;;;5031713;28;20527;-74
2023/03/21 02:14:31;;;;;;;22.53;14.30;;;8.10;1.00;;;;;;5033996;28;20455;-74
2023/03/21 02:17:02;;;;;;;21.50;15.47;;;8.10;1.00;;;;;;5033922;28;20394;-74
2023/03/21 02:19:37;;;;;;;21.20;14.47;;;8.10;1.00;;;;;;5042978;28;20430;-75
2023/03/21 02:22:49;;;;;;;22.90;16.23;;;8.10;1.00;;;;;;5052650;28;20449;-75
2023/03/21 02:25:36;;;;;;;24.83;15.90;;;8.10;1.00;;;;;;5034218;28;20406;-76
2023/03/21 02:28:12;;;;;;;21.43;14.40;;;8.10;1.00;;;;;;5033223;28;20398;-76
2023/03/21 02:31:15;;;;;;;23.40;15.30;;;8.20;1.00;;;;;;5031568;28;20961;-74
2023/03/21 02:34:01;;;;;;;24.10;14.20;;;8.10;1.00;;;;;;5032373;28;20976;-74
2023/03/21 02:36:48;;;;;;;25.20;15.73;;;8.20;1.00;;;;;;5021631;28;20418;-74
2023/03/21 02:39:37;;;;;;;22.40;15.20;;;8.10;1.00;;;;;;5032280;28;20800;-76
2023/03/21 02:42:34;;;;;;;26.90;15.50;;;8.10;1.00;;;;;;5039581;28;20945;-75
2023/03/21 02:45:14;;;;;;;24.83;16.23;;;8.20;1.00;;;;;;5052685;28;20417;-77
2023/03/21 02:47:48;;;;;;;26.93;16.87;;;8.20;1.00;;;;;;5045062;28;20519;-75
2023/03/21 02:50:30;;;;;;;22.23;14.80;;;8.10;1.00;;;;;;5032307;28;20435;-74
2023/03/21 02:52:57;;;;;;;20.60;14.20;;;8.20;1.00;;;;;;5032616;28;20549;-74
2023/03/21 02:55:29;;;;;;;24.73;16.53;;;8.20;1.00;;;;;;5033143;28;20403;-75
2023/03/21 02:57:57;;;;;;;22.10;15.23;;;8.20;1.00;;;;;;5033167;28;20500;-77
2023/03/21 03:00:28;;;;;;;21.30;15.10;;;8.20;1.00;;;;;;5031773;28;20443;-74
2023/03/21 03:02:54;;;;;;;23.03;16.20;;;8.20;1.00;;;;;;5032110;28;20458;-74
2023/03/21 03:05:23;;;;;;;21.70;15.20;;;8.20;1.00;;;;;;5031298;28;20779;-74
2023/03/21 03:08:09;;;;;;;24.33;15.40;;;8.20;1.00;;;;;;5033192;28;20544;-75
2023/03/21 03:11:11;;;;;;;20.83;14.00;;;8.20;1.00;;;;;;5031491;28;20436;-73
2023/03/21 03:13:56;;;;;;;23.27;15.67;;;8.20;1.00;;;;;;5033015;28;20424;-74
2023/03/21 03:16:35;;;;;;;22.70;14.53;;;8.20;1.00;;;;;;5031457;28;20426;-75
2023/03/21 03:19:06;;;;;;;22.90;15.90;;;8.20;1.00;;;;;;5037723;28;20433;-74
2023/03/21 03:21:31;;;;;;;22.57;14.83;;;8.20;1.00;;;;;;5051267;28;20387;-76
2023/03/21 03:24:00;;;;;;;22.07;16.27;;;8.20;1.00;;;;;;5051613;28;20392;-75
2023/03/21 03:26:47;;;;;;;23.07;15.10;;;8.20;1.00;;;;;;5052832;28;20171;-75
2023/03/21 03:29:16;;;;;;;22.30;13.87;;;8.20;1.00;;;;;;5052947;28;20400;-75
2023/03/21 03:31:50;;;;;;;18.23;12.70;;;8.20;1.00;;;;;;5033570;28;20456;-74
2023/03/21 03:34:20;;;;;;;19.30;14.50;;;8.20;1.00;;;;;;5032792;28;21029;-75
2023/03/21 03:36:54;;;;;;;19.90;14.33;;;8.20;1.00;;;;;;5032761;28;20402;-75
2023/03/21 03:39:32;;;;;;;18.83;14.03;;;8.20;1.00;;;;;;5032854;28;20410;-75
2023/03/21 03:42:02;;;;;;;21.13;14.77;;;8.30;1.00;;;;;;5031405;28;20430;-75
2023/03/21 03:44:28;;;;;;;21.87;14.70;;;8.20;1.00;;;;;;5040209;28;20443;-75
2023/03/21 03:46:57;;;;;;;21.00;14.93;;;8.20;1.00;;;;;;5032659;28;20401;-74
2023/03/21 03:49:27;;;;;;;21.80;15.20;;;8.20;1.00;;;;;;5032704;28;20394;-74
2023/03/21 03:52:18;;;;;;;25.00;14.70;;;8.20;1.00;;;;;;5031751;28;20551;-75
2023/03/21 03:54:46;;;;;;;23.90;14.80;;;8.20;1.00;;;;;;5032630;28;20409;-75
2023/03/21 03:57:12;;;;;;;23.57;14.17;;;8.20;1.00;;;;;;5033422;28;20952;-75
2023/03/21 03:59:40;;;;;;;22.70;15.60;;;8.20;1.00;;;;;;5040791;28;22248;-75
2023/03/21 04:02:07;;;;;;;19.43;14.10;;;8.20;1.00;;;;;;5051192;28;20948;-74
2023/03/21 04:04:33;;;;;;;20.50;14.30;;;8.20;1.00;;;;;;5052527;28;20396;-75
2023/03/21 04:06:59;;;;;;;21.40;14.03;;;8.20;1.00;;;;;;5052431;28;20372;-74
2023/03/21 04:09:28;;;;;;;21.70;14.20;;;8.20;1.00;;;;;;5051184;28;20416;-75
2023/03/21 04:11:55;;;;;;;21.33;14.87;;;8.20;1.00;;;;;;5048620;28;20442;-75
2023/03/21 04:14:21;;;;;;;23.67;14.50;;;8.30;1.00;;;;;;5052384;28;20434;-74
2023/03/21 04:16:48;;;;;;;25.37;16.33;;;8.30;1.00;;;;;;5052338;28;20414;-75
2023/03/21 04:19:14;;;;;;;23.70;15.83;;;8.20;1.00;;;;;;5051602;28;20434;-75
2023/03/21 04:21:40;;;;;;;28.93;15.50;;;8.30;1.00;;;;;;5050831;28;20429;-74
2023/03/21 04:24:07;;;;;;;24.03;16.13;;;8.30;1.00;;;;;;5051107;28;20414;-74
2023/03/21 04:26:34;;;;;;;26.73;16.57;;;8.30;1.00;;;;;;5041522;28;20403;-76
2023/03/21 04:29:01;;;;;;;21.07;16.37;;;8.30;1.00;;;;;;5034282;28;20406;-74
2023/03/21 04:31:30;;;;;;;23.20;15.50;;;8.30;1.00;;;;;;5034933;28;20407;-75
2023/03/21 04:34:08;;;;;;;23.23;15.10;;;8.30;1.00;;;;;;5033882;28;20461;-75
2023/03/21 04:36:37;;;;;;;31.90;16.60;;;8.30;1.00;;;;;;5035816;28;20375;-76
2023/03/21 04:39:10;;;;;;;33.67;16.63;;;8.30;1.00;;;;;;5035156;28;20884;-75
2023/03/21 04:41:40;;;;;;;30.00;17.00;;;8.30;1.00;;;;;;5035289;28;20425;-74
2023/03/21 04:44:07;;;;;;;27.80;16.67;;;8.30;1.00;;;;;;5035731;28;20400;-75
2023/03/21 04:46:34;;;;;;;27.90;17.07;;;8.30;1.00;;;;;;5035515;28;20423;-76
2023/03/21 04:49:00;;;;;;;21.27;14.70;;;8.30;1.00;;;;;;5034296;28;20760;-76
2023/03/21 04:51:25;;;;;;;25.10;16.50;;;8.30;1.00;;;;;;5034335;28;20457;-74
2023/03/21 04:53:56;;;;;;;28.73;16.80;;;8.30;1.00;;;;;;5034915;28;20426;-76
2023/03/21 04:56:29;;;;;;;25.60;16.97;;;8.30;1.00;;;;;;5049895;28;20272;-74
2023/03/21 04:58:56;;;;;;;27.67;17.10;;;8.30;1.00;;;;;;5054684;28;20372;-75
2023/03/21 05:01:22;;;;;;;27.57;16.60;;;8.30;1.00;;;;;;5054238;28;20416;-74
2023/03/21 05:03:47;;;;;;;21.63;14.23;;;8.30;1.00;;;;;;5054115;28;20730;-75
2023/03/21 05:06:13;;;;;;;27.13;15.60;;;8.30;1.00;;;;;;5055210;28;20200;-75
2023/03/21 05:08:40;;;;;;;26.93;17.10;;;8.30;1.00;;;;;;5052615;28;20180;-76
2023/03/21 05:11:06;;;;;;;32.10;18.00;;;8.30;1.00;;;;;;5047068;28;20185;-76
2023/03/21 05:13:32;;;;;;;26.67;16.20;;;8.30;1.00;;;;;;5045149;28;20993;-76
2023/03/21 05:15:57;;;;;;;26.73;17.20;;;8.30;1.00;;;;;;5034789;28;20179;-75
2023/03/21 05:18:26;;;;;;;23.57;15.47;;;8.30;1.00;;;;;;5034098;28;20156;-74
2023/03/21 05:20:53;;;;;;;22.20;15.70;;;8.30;1.00;;;;;;5034108;28;20175;-74
2023/03/21 05:23:23;;;;;;;26.57;16.73;;;8.30;1.00;;;;;;5034233;28;20479;-75
2023/03/21 05:25:49;;;;;;;25.50;17.00;;;8.30;1.00;;;;;;5033927;28;20407;-74
2023/03/21 05:28:18;;;;;;;27.07;16.30;;;8.30;1.00;;;;;;5034883;28;20386;-75
2023/03/21 05:30:47;;;;;;;27.97;16.20;;;8.30;1.00;;;;;;5038280;28;20412;-75
2023/03/21 05:33:13;;;;;;;29.70;17.07;;;8.30;1.00;;;;;;5054484;28;20428;-75
2023/03/21 05:35:39;;;;;;;26.40;18.67;;;8.30;1.00;;;;;;5054549;28;20460;-75
2023/03/21 05:38:04;;;;;;;29.63;16.07;;;8.30;1.00;;;;;;5042251;28;20177;-75
2023/03/21 05:40:30;;;;;;;28.37;17.40;;;8.40;1.00;;;;;;5033469;28;20480;-74
2023/03/21 05:42:56;;;;;;;27.87;16.97;;;8.40;1.00;;;;;;5034460;28;20194;-75
2023/03/21 05:45:21;;;;;;;27.17;17.20;;;8.30;1.00;;;;;;5034473;28;20210;-76
2023/03/21 05:47:47;;;;;;;31.20;19.50;;;8.40;1.00;;;;;;5034425;28;20234;-75
2023/03/21 05:50:13;;;;;;;25.30;16.20;;;8.30;1.00;;;;;;5032937;28;20182;-76
2023/03/21 05:52:39;;;;;;;26.40;16.60;;;8.40;1.00;;;;;;5037543;28;20284;-75
2023/03/21 05:55:06;;;;;;;23.30;15.77;;;8.40;1.00;;;;;;5054518;28;20391;-75
2023/03/21 05:57:33;;;;;;;23.80;15.47;;;8.40;1.00;;;;;;5054117;28;20773;-74
2023/03/21 06:00:00;;;;;;;24.50;15.13;;;8.40;1.00;;;;;;5052735;28;20444;-75
2023/03/21 06:02:26;;;;;;;24.33;14.73;;;8.40;1.00;;;;;;5033117;28;20925;-75
2023/03/21 06:04:52;;;;;;;24.30;16.03;;;8.40;1.00;;;;;;5034094;28;20401;-75
2023/03/21 06:07:18;;;;;;;22.83;14.50;;;8.40;1.00;;;;;;5033558;28;20414;-75
2023/03/21 06:09:44;;;;;;;24.33;15.23;;;8.40;1.00;;;;;;5033967;28;20200;-76
2023/03/21 06:12:11;;;;;;;26.73;15.03;;;8.50;1.00;;;;;;5032699;28;20941;-75
2023/03/21 06:14:37;;;;;;;29.63;17.53;;;8.50;1.00;;;;;;5033948;28;20498;-76
2023/03/21 06:17:02;;;;;;;21.87;14.10;;;8.50;1.00;;;;;;5034046;28;20432;-75
2023/03/21 06:19:28;;;;;;;26.70;15.73;;;8.50;1.00;;;;;;5033337;28;20181;-75
2023/03/21 06:21:54;;;;;;;24.40;15.77;;;8.50;1.00;;;;;;5032353;28;20193;-75
2023/03/21 06:24:20;;;;;;;26.03;15.50;;;8.60;1.00;;;;;;5032631;28;20630;-74
2023/03/21 06:26:47;;;;;;;24.43;15.13;;;8.60;1.00;;;;;;5033586;28;20236;-75
2023/03/21 06:29:12;;;;;;;23.87;13.90;;;8.70;1.00;;;;;;5033809;28;20381;-77
2023/03/21 06:31:38;;;;;;;24.30;14.00;;;8.70;1.00;;;;;;5034396;28;20454;-77
2023/03/21 06:34:04;;;;;;;27.33;16.33;;;8.70;1.00;;;;;;5053470;28;20524;-74
2023/03/21 06:36:30;;;;;;;20.43;13.77;;;8.70;1.00;;;;;;5039067;28;20183;-74
2023/03/21 06:38:56;;;;;;;22.93;15.30;;;8.70;1.00;;;;;;5033597;28;20408;-75
2023/03/21 06:41:21;;;;;;;26.07;15.53;;;8.60;1.00;;;;;;5031329;28;20663;-75
2023/03/21 06:43:47;;;;;;;23.43;13.70;;;8.70;1.00;;;;;;5032554;28;20191;-75
2023/03/21 06:46:13;;;;;;;21.90;15.60;;;8.70;1.00;;;;;;5033390;28;20166;-75
2023/03/21 06:48:43;;;;;;;23.90;15.30;;;8.70;1.00;;;;;;5031717;28;20168;-79
2023/03/21 06:51:10;;;;;;;26.30;15.97;;;8.70;1.00;;;;;;5043548;28;20564;-72
2023/03/21 06:53:37;;;;;;;23.70;17.87;;;8.70;1.00;;;;;;5033079;28;20434;-76
2023/03/21 06:56:03;;;;;;;27.23;16.13;;;8.80;1.00;;;;;;5033168;28;20451;-77
2023/03/21 06:58:29;;;;;;;27.70;16.33;;;8.80;1.00;;;;;;5031382;28;20506;-76
2023/03/21 07:00:58;;;;;;;31.30;17.37;;;8.80;1.00;;;;;;5032305;28;20770;-71
2023/03/21 07:03:24;;;;;;;27.57;17.63;;;8.90;1.00;;;;;;5033138;28;20447;-71
2023/03/21 07:05:50;;;;;;;27.40;17.30;;;8.90;1.00;;;;;;5033740;28;20434;-77
2023/03/21 07:08:16;;;;;;;23.00;14.50;;;8.90;1.00;;;;;;5032266;28;20914;-76
2023/03/21 07:10:43;;;;;;;30.40;17.60;;;9.00;1.00;;;;;;5031919;28;20658;-72
2023/03/21 07:13:09;;;;;;;33.03;18.53;;;9.00;1.00;;;;;;5033045;28;21008;-76
2023/03/21 07:15:36;;;;;;;30.17;17.47;;;9.00;1.00;;;;;;5033008;28;20747;-72
2023/03/21 07:18:09;;;;;;;35.60;19.53;;;9.10;1.00;;;;;;5032989;28;20368;-74
2023/03/21 07:20:36;;;;;;;37.93;20.37;;;9.00;1.00;;;;;;5046408;28;20404;-77
2023/03/21 07:23:03;;;;;;;38.10;20.30;;;9.10;1.00;;;;;;5033075;28;20460;-76
2023/03/21 07:25:29;;;;;;;25.23;16.40;;;9.10;1.00;;;;;;5031434;28;20392;-74
2023/03/21 07:27:55;;;;;;;25.50;16.27;;;9.20;1.00;;;;;;5031512;28;20936;-77
2023/03/21 07:30:21;;;;;;;28.57;16.73;;;9.20;1.00;;;;;;5031503;28;20401;-75
2023/03/21 07:32:47;;;;;;;27.40;16.57;;;9.20;1.00;;;;;;5034629;28;20469;-72
2023/03/21 07:35:15;;;;;;;28.73;18.27;;;9.30;1.00;;;;;;5033117;28;20224;-76
2023/03/21 07:37:41;;;;;;;26.63;16.20;;;9.30;1.00;;;;;;5032894;28;20401;-76
2023/03/21 07:40:09;;;;;;;25.77;16.83;;;9.30;1.00;;;;;;5031947;28;20380;-77
2023/03/21 07:42:39;;;;;;;23.90;14.97;;;9.40;1.00;;;;;;5031353;28;20434;-72
2023/03/21 07:45:06;;;;;;;25.70;16.33;;;9.40;1.00;;;;;;5032601;28;20385;-77
2023/03/21 07:47:33;;;;;;;21.87;16.33;;;9.50;1.00;;;;;;5031810;28;20409;-74
2023/03/21 07:49:58;;;;;;;25.50;17.73;;;9.50;1.00;;;;;;5033856;28;20795;-74
2023/03/21 07:52:24;;;;;;;30.87;16.03;;;9.50;1.00;;;;;;5032051;28;20421;-72
2023/03/21 07:54:50;;;;;;;31.80;17.67;;;9.50;1.00;;;;;;5032640;28;20213;-72
2023/03/21 07:57:16;;;;;;;34.53;15.80;;;9.50;1.00;;;;;;5032158;28;21159;-74
2023/03/21 07:59:42;;;;;;;28.27;16.70;;;9.50;1.00;;;;;;5032250;28;20208;-72
2023/03/21 08:02:16;;;;;;;23.37;15.80;;;9.50;1.00;;;;;;5030868;28;20433;-75
2023/03/21 08:04:41;;;;;;;25.03;16.23;;;9.60;1.00;;;;;;5035751;28;20179;-72
2023/03/21 08:07:08;;;;;;;26.07;15.60;;;9.60;1.00;;;;;;5036589;28;20385;-75
2023/03/21 08:09:34;;;;;;;27.93;14.80;;;9.60;99.90;;;;;;5035760;28;20797;-73
2023/03/21 08:11:59;;;;;;;27.23;17.60;;;9.60;99.90;;;;;;5035378;28;20790;-75
2023/03/21 08:14:25;;;;;;;24.30;16.13;;;9.60;99.90;;;;;;5045689;28;20439;-74
2023/03/21 08:16:51;;;;;;;26.83;16.93;;;9.60;99.90;;;;;;5056061;28;20250;-74
2023/03/21 08:19:20;;;;;;;21.60;14.57;;;9.60;99.90;;;;;;5056102;28;20171;-75
2023/03/21 08:21:48;;;;;;;29.37;17.60;;;9.60;99.90;;;;;;5054626;28;20195;-74
2023/03/21 08:24:15;;;;;;;27.03;16.30;;;9.60;99.90;;;;;;5055973;28;20417;-74
2023/03/21 08:26:42;;;;;;;28.80;17.93;;;9.50;99.90;;;;;;5036268;28;20445;-75
2023/03/21 08:29:08;;;;;;;31.80;18.37;;;9.60;99.90;;;;;;5055940;28;20988;-74
2023/03/21 08:31:34;;;;;;;26.57;16.77;;;9.60;99.90;;;;;;5054849;28;20446;-75
2023/03/21 08:34:00;;;;;;;25.73;16.80;;;9.60;99.90;;;;;;5054478;28;20470;-75
2023/03/21 08:36:26;;;;;;;28.07;17.73;;;9.50;99.90;;;;;;5055835;28;20622;-75
2023/03/21 08:38:55;;;;;;;30.10;17.33;;;9.60;99.90;;;;;;5048285;28;20783;-75
2023/03/21 08:41:23;;;;;;;29.60;17.97;;;9.60;99.90;;;;;;5033737;28;20401;-75
2023/03/21 08:43:49;;;;;;;31.37;18.47;;;9.60;99.90;;;;;;5055604;28;20994;-74
2023/03/21 08:46:15;;;;;;;29.70;19.80;;;9.50;99.90;;;;;;5054668;28;20440;-74
2023/03/21 08:48:41;;;;;;;25.30;17.27;;;9.50;99.90;;;;;;5054184;28;20490;-75
2023/03/21 08:51:07;;;;;;;26.60;17.13;;;9.50;99.90;;;;;;5054414;28;20196;-75
2023/03/21 08:53:33;;;;;;;29.60;19.53;;;9.50;99.90;;;;;;5039718;28;20469;-74
2023/03/21 08:55:59;;;;;;;27.00;18.97;;;9.50;99.90;;;;;;5034982;28;20656;-75
2023/03/21 08:58:24;;;;;;;23.40;17.27;;;9.50;99.90;;;;;;5053570;28;20210;-76
2023/03/21 09:00:51;;;;;;;26.43;18.07;;;9.60;99.90;;;;;;5054113;28;20372;-73
2023/03/21 09:03:17;;;;;;;28.40;18.60;;;9.60;1.00;;;;;;5055136;28;20396;-75
2023/03/21 09:05:44;;;;;;;25.37;16.53;;;9.60;1.00;;;;;;5055307;28;20402;-75
2023/03/21 09:08:11;;;;;;;22.63;15.90;;;9.60;1.00;;;;;;5049969;28;20413;-74
2023/03/21 09:10:38;;;;;;;24.10;16.60;;;9.60;1.00;;;;;;5034318;28;20492;-75
2023/03/21 09:13:04;;;;;;;28.53;17.40;;;9.60;1.00;;;;;;5051985;28;20471;-74
2023/03/21 09:15:30;;;;;;;21.67;14.43;;;9.70;1.00;;;;;;5053197;28;20401;-74
2023/03/21 09:18:11;;;;;;;24.17;15.67;;;9.70;1.00;;;;;;5054984;28;20764;-75
2023/03/21 09:20:39;;;;;;;22.53;16.43;;;9.60;1.00;;;;;;5053393;28;20417;-75
2023/03/21 09:23:05;;;;;;;21.47;15.80;;;9.70;1.00;;;;;;5047064;28;20425;-75
2023/03/21 09:25:31;;;;;;;19.80;14.90;;;9.60;1.00;;;;;;5033135;28;20777;-74
2023/03/21 09:27:57;;;;;;;21.27;14.80;;;9.60;1.00;;;;;;5034430;28;20389;-76
2023/03/21 09:30:24;;;;;;;22.37;15.37;;;9.60;1.00;;;;;;5031928;28;20626;-75
2023/03/21 09:32:51;;;;;;;22.67;14.87;;;9.60;1.00;;;;;;5049927;28;20465;-75
2023/03/21 09:35:18;;;;;;;23.37;16.70;;;9.70;1.00;;;;;;5033852;28;20438;-76
2023/03/21 09:37:47;;;;;;;18.57;14.83;;;9.70;1.00;;;;;;5034512;28;20413;-74
2023/03/21 09:40:15;;;;;;;22.40;14.90;;;9.70;1.00;;;;;;5044024;28;20532;-75
2023/03/21 09:42:55;;;;;;;20.20;14.97;;;9.80;1.00;;;;;;5034574;28;20400;-73
2023/03/21 09:45:39;;;;;;;19.93;13.67;;;9.80;1.00;;;;;;5034649;28;20432;-74
2023/03/21 09:48:12;;;;;;;24.20;16.10;;;9.80;1.00;;;;;;5034076;28;20401;-75
2023/03/21 09:50:39;;;;;;;22.87;16.50;;;9.90;1.00;;;;;;5030862;28;20448;-74
2023/03/21 09:53:23;;;;;;;22.87;16.07;;;9.80;1.00;;;;;;5033380;28;20489;-74
2023/03/21 09:55:52;;;;;;;25.27;18.33;;;9.80;1.00;;;;;;5034371;28;20411;-75
2023/03/21 09:58:37;;;;;;;28.93;17.50;;;9.90;1.00;;;;;;5033816;28;20412;-74
2023/03/21 10:01:40;;;;;;;23.57;15.57;;;9.90;1.00;;;;;;5032489;28;20884;-77
2023/03/21 10:04:06;;;;;;;22.20;16.10;;;9.90;1.00;;;;;;5032504;28;20416;-74
2023/03/21 10:06:38;;;;;;;21.80;15.03;;;9.90;1.00;;;;;;5034251;28;20416;-76
2023/03/21 10:09:11;;;;;;;22.40;16.30;;;9.90;1.00;;;;;;5042862;28;20738;-74
2023/03/21 10:11:58;;;;;;;24.07;16.30;;;10.00;1.00;;;;;;5046261;28;20805;-76
2023/03/21 10:14:31;;;;;;;25.67;17.67;;;10.10;1.00;;;;;;5040844;28;20770;-73
2023/03/21 10:17:21;;;;;;;21.10;16.90;;;10.10;1.00;;;;;;5034017;28;20422;-74
2023/03/21 10:19:54;;;;;;;23.03;17.03;;;10.10;1.00;;;;;;5033999;28;20471;-75
2023/03/21 10:22:20;;;;;;;24.20;15.90;;;10.10;1.00;;;;;;5033280;28;20407;-75
2023/03/21 10:24:46;;;;;;;24.17;17.00;;;10.10;1.00;;;;;;5037406;28;20442;-79
2023/03/21 10:27:13;;;;;;;20.40;15.53;;;10.20;1.00;;;;;;5031983;28;20196;-75
2023/03/21 10:29:44;;;;;;;24.83;16.20;;;10.20;1.00;;;;;;5032355;28;20214;-75
2023/03/21 10:32:13;;;;;;;20.20;14.87;;;10.40;1.00;;;;;;5032336;28;20500;-71
2023/03/21 10:34:54;;;;;;;22.47;16.37;;;10.40;1.00;;;;;;5045431;28;20434;-72
2023/03/21 10:37:21;;;;;;;20.80;15.87;;;10.50;1.00;;;;;;5053613;28;20882;-73
2023/03/21 10:39:50;;;;;;;22.30;16.77;;;10.60;1.00;;;;;;5047633;28;20400;-72
2023/03/21 10:42:22;;;;;;;22.80;14.87;;;10.50;1.00;;;;;;5032712;28;20415;-76
2023/03/21 10:44:51;;;;;;;21.20;14.40;;;10.50;99.90;;;;;;5045553;28;20403;-75
2023/03/21 10:47:29;;;;;;;26.37;15.30;;;10.50;99.90;;;;;;5053398;28;20490;-73
2023/03/21 10:50:26;;;;;;;22.30;14.27;;;10.60;99.90;;;;;;5039433;28;20428;-75
2023/03/21 10:52:59;;;;;;;20.13;14.80;;;10.60;99.90;;;;;;5036867;28;20420;-73
2023/03/21 10:55:32;;;;;;;21.30;15.00;;;10.70;99.90;;;;;;5041835;28;20421;-72
2023/03/21 10:58:26;;;;;;;18.40;13.63;;;10.70;99.90;;;;;;5037485;28;20387;-72
2023/03/21 11:01:01;;;;;;;19.80;12.97;;;10.80;99.90;;;;;;5052397;28;20401;-76
2023/03/21 11:03:31;;;;;;;19.03;12.97;;;10.80;99.90;;;;;;5045134;28;20487;-71
2023/03/21 11:06:27;;;;;;;18.30;13.20;;;10.60;99.90;;;;;;5032626;28;20429;-73
2023/03/21 11:09:04;;;;;;;19.33;12.73;;;10.60;99.90;;;;;;5048507;28;20977;-72
2023/03/21 11:11:37;;;;;;;19.40;13.30;;;10.60;99.90;;;;;;5052136;28;20403;-72
2023/03/21 11:14:08;;;;;;;18.40;13.40;;;10.60;99.90;;;;;;5034749;28;20492;-75
2023/03/21 11:16:42;;;;;;;19.77;13.70;;;10.60;99.90;;;;;;5033060;28;20406;-73
2023/03/21 11:19:26;;;;;;;19.30;14.93;;;10.60;99.90;;;;;;5048623;28;20450;-75
2023/03/21 11:21:52;;;;;;;17.90;14.57;;;10.60;99.90;;;;;;5045942;28;20440;-75
2023/03/21 11:24:18;;;;;;;20.63;14.17;;;10.50;99.90;;;;;;5035090;28;20969;-75
2023/03/21 11:26:46;;;;;;;23.50;15.33;;;10.50;99.90;;;;;;5032518;28;20419;-73
2023/03/21 11:29:35;;;;;;;24.70;15.37;;;10.50;99.90;;;;;;5048991;28;20957;-73
2023/03/21 11:32:23;;;;;;;22.40;13.67;;;10.50;99.90;;;;;;5039096;28;20450;-75
2023/03/21 11:35:14;;;;;;;24.80;17.60;;;10.50;99.90;;;;;;5031912;28;20429;-73
2023/03/21 11:37:52;;;;;;;22.90;15.60;;;10.50;99.90;;;;;;5033190;28;20401;-74
2023/03/21 11:40:35;;;;;;;27.00;16.37;;;10.50;99.90;;;;;;5043616;28;20576;-74
2023/03/21 11:43:02;;;;;;;25.10;17.33;;;10.60;99.90;;;;;;5056768;28;20410;-73
2023/03/21 11:45:35;;;;;;;22.30;16.10;;;10.70;99.90;;;;;;5052469;28;20407;-74
2023/03/21 11:48:10;;;;;;;22.57;16.80;;;10.70;99.90;;;;;;5056784;28;20379;-72
2023/03/21 11:50:41;;;;;;;24.37;17.30;;;10.70;99.90;;;;;;5044926;28;20416;-76
2023/03/21 11:53:40;;;;;;;25.17;16.30;;;10.70;99.90;;;;;;5036507;28;20484;-71
2023/03/21 11:56:41;;;;;;;22.23;14.37;;;10.80;99.90;;;;;;5049653;28;20452;-73
2023/03/21 11:59:14;;;;;;;25.17;15.57;;;10.80;99.90;;;;;;5054907;28;20407;-73
2023/03/21 12:01:49;;;;;;;24.93;15.13;;;10.80;99.90;;;;;;5037974;28;20412;-71
2023/03/21 12:04:36;;;;;;;20.07;15.00;;;10.80;99.90;;;;;;5035584;28;20414;-74
2023/03/21 12:07:37;;;;;;;23.93;15.27;;;10.80;99.90;;;;;;5034916;28;20408;-75
2023/03/21 12:10:28;;;;;;;22.97;15.27;;;10.80;99.90;;;;;;5035585;28;20425;-77
2023/03/21 12:13:17;;;;;;;20.30;14.20;;;10.70;99.90;;;;;;5038360;28;20431;-76
2023/03/21 12:16:26;;;;;;;25.87;16.10;;;10.80;99.90;;;;;;5056191;28;20770;-72
2023/03/21 12:19:19;;;;;;;21.60;15.13;;;10.80;99.90;;;;;;5046085;28;20415;-74
2023/03/21 12:22:06;;;;;;;23.40;14.47;;;10.80;99.90;;;;;;5035142;28;20443;-73
2023/03/21 12:24:36;;;;;;;25.20;15.03;;;10.90;99.90;;;;;;5049978;28;20422;-74
2023/03/21 12:27:25;;;;;;;20.50;14.20;;;10.80;99.90;;;;;;5055679;28;20419;-74
2023/03/21 12:30:01;;;;;;;18.90;13.77;;;10.80;99.90;;;;;;5037657;28;20418;-73
2023/03/21 12:32:48;;;;;;;14.80;13.00;;;10.80;99.90;;;;;;5035223;28;20789;-75
2023/03/21 12:35:31;;;;;;;18.90;13.13;;;10.70;99.90;;;;;;5040266;28;20413;-75
2023/03/21 12:38:21;;;;;;;14.20;11.40;;;10.60;99.90;;;;;;5035847;28;20733;-74
2023/03/21 12:41:12;;;;;;;19.23;12.83;;;10.60;99.90;;;;;;5034825;28;20456;-74
2023/03/21 12:43:45;;;;;;;20.73;13.23;;;10.60;99.90;;;;;;5038786;28;20800;-73
2023/03/21 12:46:36;;;;;;;24.13;13.37;;;10.70;99.90;;;;;;5055735;28;20376;-72
2023/03/21 12:49:20;;;;;;;17.40;12.77;;;10.80;99.90;;;;;;5046131;28;20414;-73
2023/03/21 12:51:53;;;;;;;13.70;11.40;;;10.80;99.90;;;;;;5033456;28;20527;-72
2023/03/21 12:54:36;;;;;;;14.57;11.73;;;10.80;99.90;;;;;;5037810;28;20480;-73
2023/03/21 12:57:17;;;;;;;14.50;11.50;;;10.70;99.90;;;;;;5035740;28;20911;-72
2023/03/21 12:59:54;;;;;;;13.73;10.27;;;10.80;99.90;;;;;;5055617;28;20462;-74
2023/03/21 13:02:33;;;;;;;13.57;10.50;;;10.80;99.90;;;;;;5049147;28;20434;-74